Terminal Aerodrome Forecast
Issued by NWS Portland, OR

Home | Current Version | Previous Version | Text Only | Print | Product List | Glossary On
Versions: 1 2 3 4 5 6 7 8 9 10 11 12 13 14 15 16 17 18 19 20 21 22 23 24 25 26 27 28 29 30 31 32
000
FTUS46 KPQR 251951 AAA
TAFPDX
TAF AMD
KPDX 251951Z 2520/2618 13014G25KT P6SM -SHRA SCT050 BKN080
      WS015/18040KT
     FM252200 19022G40KT P6SM -SHRA SCT025 OVC050
      TEMPO 2522/2602 4SM SHRA BKN025 OVC040
     FM260200 20017G28KT P6SM -SHRA BKN025 OVC050
     FM260500 23012G22KT P6SM -SHRA BKN030 BKN050
     FM261000 22008KT P6SM -SHRA BKN030 OVC050=

USA.gov is the U.S. government's official web portal to all federal, state and local government web resources and services.